sensor_id;sensor_type;location;lat;lon;timestamp;P1;durP1;ratioP1;P2;durP2;ratioP2
54408;SDS011;40315;48.620;9.828;2023-05-23T00:01:09;12.75;;;10.25;;
54408;SDS011;40315;48.620;9.828;2023-05-23T00:03:38;12.65;;;10.70;;
54408;SDS011;40315;48.620;9.828;2023-05-23T00:06:05;14.00;;;11.13;;
54408;SDS011;40315;48.620;9.828;2023-05-23T00:08:34;13.13;;;10.57;;
54408;SDS011;40315;48.620;9.828;2023-05-23T00:11:01;12.40;;;9.90;;
54408;SDS011;40315;48.620;9.828;2023-05-23T00:13:30;13.73;;;11.93;;
54408;SDS011;40315;48.620;9.828;2023-05-23T00:15:58;14.65;;;12.50;;
54408;SDS011;40315;48.620;9.828;2023-05-23T00:18:26;12.82;;;10.90;;
54408;SDS011;40315;48.620;9.828;2023-05-23T00:20:54;18.15;;;13.30;;
54408;SDS011;40315;48.620;9.828;2023-05-23T00:23:23;15.52;;;12.70;;
54408;SDS011;40315;48.620;9.828;2023-05-23T00:25:50;15.45;;;12.40;;
54408;SDS011;40315;48.620;9.828;2023-05-23T00:28:18;14.30;;;12.27;;
54408;SDS011;40315;48.620;9.828;2023-05-23T00:30:49;13.82;;;12.27;;
54408;SDS011;40315;48.620;9.828;2023-05-23T00:33:16;16.38;;;13.23;;
54408;SDS011;40315;48.620;9.828;2023-05-23T00:35:48;14.52;;;12.52;;
54408;SDS011;40315;48.620;9.828;2023-05-23T00:38:15;14.05;;;12.35;;
54408;SDS011;40315;48.620;9.828;2023-05-23T00:40:44;16.88;;;14.15;;
54408;SDS011;40315;48.620;9.828;2023-05-23T00:43:12;16.20;;;14.30;;
54408;SDS011;40315;48.620;9.828;2023-05-23T00:45:40;16.50;;;14.02;;
54408;SDS011;40315;48.620;9.828;2023-05-23T00:48:08;17.50;;;14.63;;
54408;SDS011;40315;48.620;9.828;2023-05-23T00:50:41;17.00;;;13.57;;
54408;SDS011;40315;48.620;9.828;2023-05-23T00:53:08;19.83;;;15.60;;
54408;SDS011;40315;48.620;9.828;2023-05-23T00:55:35;21.55;;;16.27;;
54408;SDS011;40315;48.620;9.828;2023-05-23T00:58:05;21.73;;;15.52;;
54408;SDS011;40315;48.620;9.828;2023-05-23T01:03:15;18.17;;;15.02;;
54408;SDS011;40315;48.620;9.828;2023-05-23T01:05:43;19.48;;;16.35;;
54408;SDS011;40315;48.620;9.828;2023-05-23T01:08:10;20.70;;;16.98;;
54408;SDS011;40315;48.620;9.828;2023-05-23T01:10:37;22.10;;;16.88;;
54408;SDS011;40315;48.620;9.828;2023-05-23T01:13:09;20.33;;;15.90;;
54408;SDS011;40315;48.620;9.828;2023-05-23T01:15:44;20.45;;;16.85;;
54408;SDS011;40315;48.620;9.828;2023-05-23T01:18:20;27.00;;;19.17;;
54408;SDS011;40315;48.620;9.828;2023-05-23T01:20:53;24.63;;;18.70;;
54408;SDS011;40315;48.620;9.828;2023-05-23T01:23:26;24.60;;;18.00;;
54408;SDS011;40315;48.620;9.828;2023-05-23T01:26:12;26.95;;;19.88;;
54408;SDS011;40315;48.620;9.828;2023-05-23T01:28:54;30.67;;;21.90;;
54408;SDS011;40315;48.620;9.828;2023-05-23T01:31:24;26.13;;;19.77;;
54408;SDS011;40315;48.620;9.828;2023-05-23T01:33:55;31.70;;;22.25;;
54408;SDS011;40315;48.620;9.828;2023-05-23T01:36:23;28.63;;;20.42;;
54408;SDS011;40315;48.620;9.828;2023-05-23T01:38:51;31.48;;;22.20;;
54408;SDS011;40315;48.620;9.828;2023-05-23T01:41:17;33.72;;;23.65;;
54408;SDS011;40315;48.620;9.828;2023-05-23T01:43:46;36.30;;;25.85;;
54408;SDS011;40315;48.620;9.828;2023-05-23T01:46:15;36.28;;;25.27;;
54408;SDS011;40315;48.620;9.828;2023-05-23T01:52:40;43.05;;;27.27;;
54408;SDS011;40315;48.620;9.828;2023-05-23T01:55:07;49.05;;;30.70;;
54408;SDS011;40315;48.620;9.828;2023-05-23T01:57:36;40.38;;;27.77;;
54408;SDS011;40315;48.620;9.828;2023-05-23T02:00:04;51.22;;;30.80;;
54408;SDS011;40315;48.620;9.828;2023-05-23T02:02:42;43.15;;;29.95;;
54408;SDS011;40315;48.620;9.828;2023-05-23T02:05:09;41.10;;;26.80;;
54408;SDS011;40315;48.620;9.828;2023-05-23T02:07:37;44.53;;;29.55;;
54408;SDS011;40315;48.620;9.828;2023-05-23T02:10:06;52.80;;;32.40;;
54408;SDS011;40315;48.620;9.828;2023-05-23T02:12:34;42.35;;;29.55;;
54408;SDS011;40315;48.620;9.828;2023-05-23T02:15:01;41.20;;;27.15;;
54408;SDS011;40315;48.620;9.828;2023-05-23T02:17:30;37.72;;;26.13;;
54408;SDS011;40315;48.620;9.828;2023-05-23T02:19:59;43.83;;;26.85;;
54408;SDS011;40315;48.620;9.828;2023-05-23T02:22:26;39.42;;;25.75;;
54408;SDS011;40315;48.620;9.828;2023-05-23T02:24:53;43.38;;;27.95;;
54408;SDS011;40315;48.620;9.828;2023-05-23T02:27:20;39.53;;;27.50;;
54408;SDS011;40315;48.620;9.828;2023-05-23T02:29:50;39.45;;;26.88;;
54408;SDS011;40315;48.620;9.828;2023-05-23T02:32:17;38.10;;;26.58;;
54408;SDS011;40315;48.620;9.828;2023-05-23T02:34:44;37.97;;;26.52;;
54408;SDS011;40315;48.620;9.828;2023-05-23T02:37:16;44.40;;;29.27;;
54408;SDS011;40315;48.620;9.828;2023-05-23T02:39:43;44.72;;;29.30;;
54408;SDS011;40315;48.620;9.828;2023-05-23T02:42:10;40.42;;;29.02;;
54408;SDS011;40315;48.620;9.828;2023-05-23T02:44:37;47.58;;;29.20;;
54408;SDS011;40315;48.620;9.828;2023-05-23T02:47:06;43.90;;;28.90;;
54408;SDS011;40315;48.620;9.828;2023-05-23T02:49:36;43.90;;;29.33;;
54408;SDS011;40315;48.620;9.828;2023-05-23T02:52:04;50.80;;;30.67;;
54408;SDS011;40315;48.620;9.828;2023-05-23T02:54:35;49.75;;;31.42;;
54408;SDS011;40315;48.620;9.828;2023-05-23T02:57:03;44.80;;;31.02;;
54408;SDS011;40315;48.620;9.828;2023-05-23T02:59:36;51.10;;;32.40;;
54408;SDS011;40315;48.620;9.828;2023-05-23T03:02:03;51.65;;;32.03;;
54408;SDS011;40315;48.620;9.828;2023-05-23T03:04:30;53.97;;;33.33;;
54408;SDS011;40315;48.620;9.828;2023-05-23T03:06:57;48.78;;;29.85;;
54408;SDS011;40315;48.620;9.828;2023-05-23T03:09:24;51.90;;;32.70;;
54408;SDS011;40315;48.620;9.828;2023-05-23T03:11:53;53.75;;;33.70;;
54408;SDS011;40315;48.620;9.828;2023-05-23T03:14:20;46.67;;;30.77;;
54408;SDS011;40315;48.620;9.828;2023-05-23T03:16:47;45.70;;;29.55;;
54408;SDS011;40315;48.620;9.828;2023-05-23T03:19:14;46.47;;;29.13;;
54408;SDS011;40315;48.620;9.828;2023-05-23T03:21:41;49.15;;;31.63;;
54408;SDS011;40315;48.620;9.828;2023-05-23T03:24:08;47.75;;;31.20;;
54408;SDS011;40315;48.620;9.828;2023-05-23T03:26:35;46.78;;;30.75;;
54408;SDS011;40315;48.620;9.828;2023-05-23T03:29:04;51.30;;;31.27;;
54408;SDS011;40315;48.620;9.828;2023-05-23T03:31:31;55.83;;;34.35;;
54408;SDS011;40315;48.620;9.828;2023-05-23T03:33:58;54.92;;;33.10;;
54408;SDS011;40315;48.620;9.828;2023-05-23T03:36:25;62.33;;;37.88;;
54408;SDS011;40315;48.620;9.828;2023-05-23T03:38:53;70.35;;;41.55;;
54408;SDS011;40315;48.620;9.828;2023-05-23T03:41:20;79.20;;;42.05;;
54408;SDS011;40315;48.620;9.828;2023-05-23T03:43:47;77.40;;;42.20;;
54408;SDS011;40315;48.620;9.828;2023-05-23T03:46:15;74.97;;;42.50;;
54408;SDS011;40315;48.620;9.828;2023-05-23T03:48:42;74.82;;;42.92;;
54408;SDS011;40315;48.620;9.828;2023-05-23T03:51:09;76.13;;;41.33;;
54408;SDS011;40315;48.620;9.828;2023-05-23T03:53:38;81.45;;;43.60;;
54408;SDS011;40315;48.620;9.828;2023-05-23T03:56:05;86.80;;;44.00;;
54408;SDS011;40315;48.620;9.828;2023-05-23T03:58:32;94.72;;;48.30;;
54408;SDS011;40315;48.620;9.828;2023-05-23T04:01:05;98.50;;;47.00;;
54408;SDS011;40315;48.620;9.828;2023-05-23T04:03:34;100.07;;;48.22;;
54408;SDS011;40315;48.620;9.828;2023-05-23T04:06:02;103.55;;;50.13;;
54408;SDS011;40315;48.620;9.828;2023-05-23T04:08:30;100.80;;;50.40;;
54408;SDS011;40315;48.620;9.828;2023-05-23T04:11:00;110.35;;;50.33;;
54408;SDS011;40315;48.620;9.828;2023-05-23T04:13:32;112.63;;;52.20;;
54408;SDS011;40315;48.620;9.828;2023-05-23T04:15:59;117.60;;;53.75;;
54408;SDS011;40315;48.620;9.828;2023-05-23T04:18:30;118.45;;;53.50;;
54408;SDS011;40315;48.620;9.828;2023-05-23T04:20:59;119.95;;;52.72;;
54408;SDS011;40315;48.620;9.828;2023-05-23T04:23:29;118.45;;;52.53;;
54408;SDS011;40315;48.620;9.828;2023-05-23T04:25:56;118.80;;;53.35;;
54408;SDS011;40315;48.620;9.828;2023-05-23T04:28:25;115.07;;;53.83;;
54408;SDS011;40315;48.620;9.828;2023-05-23T04:30:55;113.72;;;52.08;;
54408;SDS011;40315;48.620;9.828;2023-05-23T04:33:25;126.32;;;56.47;;
54408;SDS011;40315;48.620;9.828;2023-05-23T04:35:54;110.70;;;52.53;;
54408;SDS011;40315;48.620;9.828;2023-05-23T04:38:23;113.57;;;51.88;;
54408;SDS011;40315;48.620;9.828;2023-05-23T04:40:52;118.40;;;54.33;;
54408;SDS011;40315;48.620;9.828;2023-05-23T04:43:38;100.90;;;49.08;;
54408;SDS011;40315;48.620;9.828;2023-05-23T04:46:17;107.97;;;51.50;;
54408;SDS011;40315;48.620;9.828;2023-05-23T04:49:00;115.57;;;52.03;;
54408;SDS011;40315;48.620;9.828;2023-05-23T04:51:28;111.20;;;52.95;;
54408;SDS011;40315;48.620;9.828;2023-05-23T04:54:04;118.70;;;55.80;;
54408;SDS011;40315;48.620;9.828;2023-05-23T04:56:31;127.50;;;54.92;;
54408;SDS011;40315;48.620;9.828;2023-05-23T04:58:58;120.35;;;56.40;;
54408;SDS011;40315;48.620;9.828;2023-05-23T05:01:26;114.13;;;52.80;;
54408;SDS011;40315;48.620;9.828;2023-05-23T05:03:53;125.30;;;55.38;;
54408;SDS011;40315;48.620;9.828;2023-05-23T05:06:21;118.15;;;55.08;;
54408;SDS011;40315;48.620;9.828;2023-05-23T05:08:49;123.10;;;56.05;;
54408;SDS011;40315;48.620;9.828;2023-05-23T05:11:20;113.97;;;53.63;;
54408;SDS011;40315;48.620;9.828;2023-05-23T05:13:47;119.20;;;55.05;;
54408;SDS011;40315;48.620;9.828;2023-05-23T05:16:14;118.63;;;56.42;;
54408;SDS011;40315;48.620;9.828;2023-05-23T05:18:41;120.25;;;56.13;;
54408;SDS011;40315;48.620;9.828;2023-05-23T05:21:08;119.60;;;56.95;;
54408;SDS011;40315;48.620;9.828;2023-05-23T05:23:36;125.80;;;56.70;;
54408;SDS011;40315;48.620;9.828;2023-05-23T05:26:04;119.90;;;55.63;;
54408;SDS011;40315;48.620;9.828;2023-05-23T05:28:33;119.28;;;55.60;;
54408;SDS011;40315;48.620;9.828;2023-05-23T05:31:00;114.15;;;54.35;;
54408;SDS011;40315;48.620;9.828;2023-05-23T05:33:32;125.43;;;55.45;;
54408;SDS011;40315;48.620;9.828;2023-05-23T05:36:09;105.15;;;52.90;;
54408;SDS011;40315;48.620;9.828;2023-05-23T05:38:36;110.47;;;54.85;;
54408;SDS011;40315;48.620;9.828;2023-05-23T05:41:04;109.93;;;53.63;;
54408;SDS011;40315;48.620;9.828;2023-05-23T05:43:38;112.75;;;54.25;;
54408;SDS011;40315;48.620;9.828;2023-05-23T05:46:05;118.50;;;55.17;;
54408;SDS011;40315;48.620;9.828;2023-05-23T05:48:33;107.63;;;52.40;;
54408;SDS011;40315;48.620;9.828;2023-05-23T05:51:05;105.18;;;52.10;;
54408;SDS011;40315;48.620;9.828;2023-05-23T05:53:33;105.00;;;53.10;;
54408;SDS011;40315;48.620;9.828;2023-05-23T05:56:00;106.63;;;53.08;;
54408;SDS011;40315;48.620;9.828;2023-05-23T05:58:29;97.18;;;50.70;;
54408;SDS011;40315;48.620;9.828;2023-05-23T06:01:01;99.13;;;51.15;;
54408;SDS011;40315;48.620;9.828;2023-05-23T06:03:29;94.32;;;50.38;;
54408;SDS011;40315;48.620;9.828;2023-05-23T06:05:57;99.53;;;51.65;;
54408;SDS011;40315;48.620;9.828;2023-05-23T06:08:24;106.78;;;53.60;;
54408;SDS011;40315;48.620;9.828;2023-05-23T06:10:53;97.97;;;51.40;;
54408;SDS011;40315;48.620;9.828;2023-05-23T06:13:21;104.05;;;51.65;;
54408;SDS011;40315;48.620;9.828;2023-05-23T06:15:52;97.80;;;52.22;;
54408;SDS011;40315;48.620;9.828;2023-05-23T06:18:20;103.93;;;52.17;;
54408;SDS011;40315;48.620;9.828;2023-05-23T06:20:49;103.38;;;53.30;;
54408;SDS011;40315;48.620;9.828;2023-05-23T06:23:17;102.05;;;52.53;;
54408;SDS011;40315;48.620;9.828;2023-05-23T06:25:45;106.57;;;52.90;;
54408;SDS011;40315;48.620;9.828;2023-05-23T06:28:12;107.40;;;52.05;;
54408;SDS011;40315;48.620;9.828;2023-05-23T06:30:44;97.13;;;49.78;;
54408;SDS011;40315;48.620;9.828;2023-05-23T06:33:14;93.75;;;50.65;;
54408;SDS011;40315;48.620;9.828;2023-05-23T06:35:43;90.43;;;47.47;;
54408;SDS011;40315;48.620;9.828;2023-05-23T06:38:10;87.60;;;48.20;;
54408;SDS011;40315;48.620;9.828;2023-05-23T06:40:38;81.65;;;45.58;;
54408;SDS011;40315;48.620;9.828;2023-05-23T06:43:09;87.72;;;47.28;;
54408;SDS011;40315;48.620;9.828;2023-05-23T06:45:51;86.78;;;47.13;;
54408;SDS011;40315;48.620;9.828;2023-05-23T06:48:19;81.45;;;47.35;;
54408;SDS011;40315;48.620;9.828;2023-05-23T06:50:50;86.85;;;47.92;;
54408;SDS011;40315;48.620;9.828;2023-05-23T06:53:18;83.00;;;47.33;;
54408;SDS011;40315;48.620;9.828;2023-05-23T06:55:47;84.97;;;46.80;;
54408;SDS011;40315;48.620;9.828;2023-05-23T06:58:17;85.32;;;47.28;;
54408;SDS011;40315;48.620;9.828;2023-05-23T07:00:45;76.28;;;45.25;;
54408;SDS011;40315;48.620;9.828;2023-05-23T07:03:18;79.40;;;45.28;;
54408;SDS011;40315;48.620;9.828;2023-05-23T07:05:45;77.70;;;45.13;;
54408;SDS011;40315;48.620;9.828;2023-05-23T07:08:15;76.85;;;45.33;;
54408;SDS011;40315;48.620;9.828;2023-05-23T07:10:54;68.07;;;41.97;;
54408;SDS011;40315;48.620;9.828;2023-05-23T07:13:28;71.38;;;42.28;;
54408;SDS011;40315;48.620;9.828;2023-05-23T07:15:56;78.03;;;44.92;;
54408;SDS011;40315;48.620;9.828;2023-05-23T07:18:23;74.75;;;43.85;;
54408;SDS011;40315;48.620;9.828;2023-05-23T07:20:51;70.57;;;42.63;;
54408;SDS011;40315;48.620;9.828;2023-05-23T07:23:22;76.30;;;43.47;;
54408;SDS011;40315;48.620;9.828;2023-05-23T07:25:50;66.45;;;41.38;;
54408;SDS011;40315;48.620;9.828;2023-05-23T07:28:24;69.28;;;42.65;;
54408;SDS011;40315;48.620;9.828;2023-05-23T07:30:53;65.78;;;41.67;;
54408;SDS011;40315;48.620;9.828;2023-05-23T07:33:21;69.25;;;41.65;;
54408;SDS011;40315;48.620;9.828;2023-05-23T07:35:49;69.45;;;43.08;;
54408;SDS011;40315;48.620;9.828;2023-05-23T07:38:19;69.45;;;40.35;;
54408;SDS011;40315;48.620;9.828;2023-05-23T07:40:47;68.25;;;41.40;;
54408;SDS011;40315;48.620;9.828;2023-05-23T07:43:14;65.80;;;40.83;;
54408;SDS011;40315;48.620;9.828;2023-05-23T07:45:41;60.10;;;40.33;;
54408;SDS011;40315;48.620;9.828;2023-05-23T07:48:11;66.03;;;41.42;;
54408;SDS011;40315;48.620;9.828;2023-05-23T07:50:38;62.25;;;39.78;;
54408;SDS011;40315;48.620;9.828;2023-05-23T07:53:08;55.28;;;36.42;;
54408;SDS011;40315;48.620;9.828;2023-05-23T07:55:38;53.50;;;35.72;;
54408;SDS011;40315;48.620;9.828;2023-05-23T07:58:07;52.00;;;35.78;;
54408;SDS011;40315;48.620;9.828;2023-05-23T08:00:37;53.50;;;35.90;;
54408;SDS011;40315;48.620;9.828;2023-05-23T08:03:12;52.55;;;35.10;;
54408;SDS011;40315;48.620;9.828;2023-05-23T08:05:52;53.17;;;35.95;;
54408;SDS011;40315;48.620;9.828;2023-05-23T08:08:22;48.60;;;34.10;;
54408;SDS011;40315;48.620;9.828;2023-05-23T08:10:49;51.15;;;34.20;;
54408;SDS011;40315;48.620;9.828;2023-05-23T08:13:24;51.50;;;35.13;;
54408;SDS011;40315;48.620;9.828;2023-05-23T08:16:11;44.25;;;32.03;;
54408;SDS011;40315;48.620;9.828;2023-05-23T08:18:38;52.53;;;36.58;;
54408;SDS011;40315;48.620;9.828;2023-05-23T08:21:05;48.67;;;34.72;;
54408;SDS011;40315;48.620;9.828;2023-05-23T08:23:32;46.92;;;32.92;;
54408;SDS011;40315;48.620;9.828;2023-05-23T08:25:59;44.58;;;32.13;;
54408;SDS011;40315;48.620;9.828;2023-05-23T08:28:28;48.60;;;34.53;;
54408;SDS011;40315;48.620;9.828;2023-05-23T08:30:57;44.65;;;32.97;;
54408;SDS011;40315;48.620;9.828;2023-05-23T08:33:25;46.90;;;33.88;;
54408;SDS011;40315;48.620;9.828;2023-05-23T08:35:55;46.70;;;33.67;;
54408;SDS011;40315;48.620;9.828;2023-05-23T08:38:22;51.92;;;35.95;;
54408;SDS011;40315;48.620;9.828;2023-05-23T08:41:02;47.38;;;33.58;;
54408;SDS011;40315;48.620;9.828;2023-05-23T08:43:37;48.00;;;34.08;;
54408;SDS011;40315;48.620;9.828;2023-05-23T08:46:05;43.40;;;32.28;;
54408;SDS011;40315;48.620;9.828;2023-05-23T08:48:35;45.17;;;33.47;;
54408;SDS011;40315;48.620;9.828;2023-05-23T08:51:04;44.47;;;33.92;;
54408;SDS011;40315;48.620;9.828;2023-05-23T08:53:33;48.85;;;34.45;;
54408;SDS011;40315;48.620;9.828;2023-05-23T08:56:05;49.92;;;35.97;;
54408;SDS011;40315;48.620;9.828;2023-05-23T08:58:41;48.88;;;35.42;;
54408;SDS011;40315;48.620;9.828;2023-05-23T09:01:10;47.47;;;33.38;;
54408;SDS011;40315;48.620;9.828;2023-05-23T09:03:38;47.20;;;33.60;;
54408;SDS011;40315;48.620;9.828;2023-05-23T09:06:38;47.03;;;33.83;;
54408;SDS011;40315;48.620;9.828;2023-05-23T09:09:05;45.70;;;33.85;;
54408;SDS011;40315;48.620;9.828;2023-05-23T09:11:37;48.17;;;34.00;;
54408;SDS011;40315;48.620;9.828;2023-05-23T09:14:11;45.78;;;34.20;;
54408;SDS011;40315;48.620;9.828;2023-05-23T09:16:45;42.88;;;31.73;;
54408;SDS011;40315;48.620;9.828;2023-05-23T09:19:15;45.47;;;34.28;;
54408;SDS011;40315;48.620;9.828;2023-05-23T09:21:56;44.33;;;32.13;;
54408;SDS011;40315;48.620;9.828;2023-05-23T09:24:32;46.40;;;35.30;;
54408;SDS011;40315;48.620;9.828;2023-05-23T09:27:00;45.40;;;34.13;;
54408;SDS011;40315;48.620;9.828;2023-05-23T09:29:29;47.22;;;35.00;;
54408;SDS011;40315;48.620;9.828;2023-05-23T09:31:58;46.35;;;33.42;;
54408;SDS011;40315;48.620;9.828;2023-05-23T09:34:28;43.78;;;34.67;;
54408;SDS011;40315;48.620;9.828;2023-05-23T09:36:55;43.53;;;34.08;;
54408;SDS011;40315;48.620;9.828;2023-05-23T09:39:22;41.15;;;32.75;;
54408;SDS011;40315;48.620;9.828;2023-05-23T09:41:49;40.90;;;33.53;;
54408;SDS011;40315;48.620;9.828;2023-05-23T09:44:16;43.13;;;31.70;;
54408;SDS011;40315;48.620;9.828;2023-05-23T09:46:50;41.83;;;32.70;;
54408;SDS011;40315;48.620;9.828;2023-05-23T09:49:20;38.50;;;31.52;;
54408;SDS011;40315;48.620;9.828;2023-05-23T09:51:57;38.65;;;30.27;;
54408;SDS011;40315;48.620;9.828;2023-05-23T09:54:24;39.63;;;31.40;;
54408;SDS011;40315;48.620;9.828;2023-05-23T09:56:52;39.35;;;30.92;;
54408;SDS011;40315;48.620;9.828;2023-05-23T09:59:21;36.58;;;29.98;;
54408;SDS011;40315;48.620;9.828;2023-05-23T10:01:51;34.92;;;28.65;;
54408;SDS011;40315;48.620;9.828;2023-05-23T10:04:21;38.33;;;30.13;;
54408;SDS011;40315;48.620;9.828;2023-05-23T10:06:52;38.60;;;30.77;;
54408;SDS011;40315;48.620;9.828;2023-05-23T10:09:24;38.90;;;30.10;;
54408;SDS011;40315;48.620;9.828;2023-05-23T10:15:10;36.83;;;29.75;;
54408;SDS011;40315;48.620;9.828;2023-05-23T10:17:56;35.83;;;29.05;;
54408;SDS011;40315;48.620;9.828;2023-05-23T10:20:29;34.10;;;28.30;;
54408;SDS011;40315;48.620;9.828;2023-05-23T10:22:58;33.53;;;28.02;;
54408;SDS011;40315;48.620;9.828;2023-05-23T10:25:26;31.70;;;26.38;;
54408;SDS011;40315;48.620;9.828;2023-05-23T10:27:54;31.10;;;27.13;;
54408;SDS011;40315;48.620;9.828;2023-05-23T10:30:24;33.42;;;28.45;;
54408;SDS011;40315;48.620;9.828;2023-05-23T10:32:52;32.88;;;29.27;;
54408;SDS011;40315;48.620;9.828;2023-05-23T10:35:22;34.60;;;28.92;;
54408;SDS011;40315;48.620;9.828;2023-05-23T10:37:58;33.10;;;28.20;;
54408;SDS011;40315;48.620;9.828;2023-05-23T10:40:53;32.15;;;27.05;;
54408;SDS011;40315;48.620;9.828;2023-05-23T10:43:28;29.90;;;25.13;;
54408;SDS011;40315;48.620;9.828;2023-05-23T10:46:00;30.38;;;25.35;;
54408;SDS011;40315;48.620;9.828;2023-05-23T10:48:34;30.35;;;24.17;;
54408;SDS011;40315;48.620;9.828;2023-05-23T10:51:08;29.33;;;25.90;;
54408;SDS011;40315;48.620;9.828;2023-05-23T10:53:36;29.55;;;25.73;;
54408;SDS011;40315;48.620;9.828;2023-05-23T10:56:06;26.58;;;23.73;;
54408;SDS011;40315;48.620;9.828;2023-05-23T10:58:35;30.17;;;24.95;;
54408;SDS011;40315;48.620;9.828;2023-05-23T11:01:05;27.38;;;23.63;;
54408;SDS011;40315;48.620;9.828;2023-05-23T11:03:34;29.73;;;25.35;;
54408;SDS011;40315;48.620;9.828;2023-05-23T11:06:05;28.05;;;24.73;;
54408;SDS011;40315;48.620;9.828;2023-05-23T11:08:37;28.85;;;25.17;;
54408;SDS011;40315;48.620;9.828;2023-05-23T11:11:06;31.52;;;25.45;;
54408;SDS011;40315;48.620;9.828;2023-05-23T11:13:53;27.80;;;24.23;;
54408;SDS011;40315;48.620;9.828;2023-05-23T11:16:25;27.10;;;23.98;;
54408;SDS011;40315;48.620;9.828;2023-05-23T11:21:51;24.40;;;21.80;;
54408;SDS011;40315;48.620;9.828;2023-05-23T11:24:21;26.25;;;23.08;;
54408;SDS011;40315;48.620;9.828;2023-05-23T11:26:52;24.08;;;21.52;;
54408;SDS011;40315;48.620;9.828;2023-05-23T11:29:26;23.50;;;21.00;;
54408;SDS011;40315;48.620;9.828;2023-05-23T11:31:54;22.52;;;20.13;;
54408;SDS011;40315;48.620;9.828;2023-05-23T11:34:21;24.95;;;20.48;;
54408;SDS011;40315;48.620;9.828;2023-05-23T11:36:51;22.20;;;19.50;;
54408;SDS011;40315;48.620;9.828;2023-05-23T11:39:19;20.50;;;18.30;;
54408;SDS011;40315;48.620;9.828;2023-05-23T11:41:58;21.00;;;18.67;;
54408;SDS011;40315;48.620;9.828;2023-05-23T11:44:25;19.33;;;17.33;;
54408;SDS011;40315;48.620;9.828;2023-05-23T11:46:58;22.13;;;18.35;;
54408;SDS011;40315;48.620;9.828;2023-05-23T11:49:27;21.17;;;18.90;;
54408;SDS011;40315;48.620;9.828;2023-05-23T11:51:55;20.45;;;18.25;;
54408;SDS011;40315;48.620;9.828;2023-05-23T11:54:26;20.45;;;17.80;;
54408;SDS011;40315;48.620;9.828;2023-05-23T11:56:56;21.00;;;18.77;;
54408;SDS011;40315;48.620;9.828;2023-05-23T11:59:24;20.40;;;18.27;;
54408;SDS011;40315;48.620;9.828;2023-05-23T12:01:52;21.30;;;17.30;;
54408;SDS011;40315;48.620;9.828;2023-05-23T12:04:20;18.95;;;16.90;;
54408;SDS011;40315;48.620;9.828;2023-05-23T12:06:47;19.60;;;15.68;;
54408;SDS011;40315;48.620;9.828;2023-05-23T12:09:17;21.27;;;16.13;;
54408;SDS011;40315;48.620;9.828;2023-05-23T12:11:47;19.42;;;15.63;;
54408;SDS011;40315;48.620;9.828;2023-05-23T12:14:14;16.67;;;14.93;;
54408;SDS011;40315;48.620;9.828;2023-05-23T12:16:42;19.05;;;15.30;;
54408;SDS011;40315;48.620;9.828;2023-05-23T12:19:11;17.17;;;14.57;;
54408;SDS011;40315;48.620;9.828;2023-05-23T12:21:41;16.38;;;14.68;;
54408;SDS011;40315;48.620;9.828;2023-05-23T12:24:12;18.42;;;14.38;;
54408;SDS011;40315;48.620;9.828;2023-05-23T12:26:49;16.08;;;13.38;;
54408;SDS011;40315;48.620;9.828;2023-05-23T12:29:18;16.10;;;14.25;;
54408;SDS011;40315;48.620;9.828;2023-05-23T12:31:49;16.23;;;14.52;;
54408;SDS011;40315;48.620;9.828;2023-05-23T12:34:18;17.35;;;14.60;;
54408;SDS011;40315;48.620;9.828;2023-05-23T12:36:46;17.65;;;14.93;;
54408;SDS011;40315;48.620;9.828;2023-05-23T12:39:14;16.88;;;14.35;;
54408;SDS011;40315;48.620;9.828;2023-05-23T12:41:41;17.25;;;14.40;;
54408;SDS011;40315;48.620;9.828;2023-05-23T12:44:15;16.95;;;14.95;;
54408;SDS011;40315;48.620;9.828;2023-05-23T12:46:42;19.77;;;15.02;;
54408;SDS011;40315;48.620;9.828;2023-05-23T12:49:09;15.52;;;13.93;;
54408;SDS011;40315;48.620;9.828;2023-05-23T12:51:37;16.52;;;14.77;;
54408;SDS011;40315;48.620;9.828;2023-05-23T12:54:04;15.70;;;13.95;;
54408;SDS011;40315;48.620;9.828;2023-05-23T12:56:31;20.10;;;14.00;;
54408;SDS011;40315;48.620;9.828;2023-05-23T12:58:58;16.55;;;13.55;;
54408;SDS011;40315;48.620;9.828;2023-05-23T13:01:27;17.98;;;12.77;;
54408;SDS011;40315;48.620;9.828;2023-05-23T13:03:54;14.75;;;13.20;;
54408;SDS011;40315;48.620;9.828;2023-05-23T13:06:21;15.40;;;13.23;;
54408;SDS011;40315;48.620;9.828;2023-05-23T13:08:50;15.75;;;14.02;;
54408;SDS011;40315;48.620;9.828;2023-05-23T13:11:18;15.35;;;13.73;;
54408;SDS011;40315;48.620;9.828;2023-05-23T13:13:46;14.70;;;13.00;;
54408;SDS011;40315;48.620;9.828;2023-05-23T13:16:13;15.10;;;12.75;;
54408;SDS011;40315;48.620;9.828;2023-05-23T13:18:42;14.80;;;13.20;;
54408;SDS011;40315;48.620;9.828;2023-05-23T13:21:09;12.88;;;11.48;;
54408;SDS011;40315;48.620;9.828;2023-05-23T13:23:36;11.50;;;10.07;;
54408;SDS011;40315;48.620;9.828;2023-05-23T13:26:03;13.98;;;11.23;;
54408;SDS011;40315;48.620;9.828;2023-05-23T13:28:32;13.70;;;12.20;;
54408;SDS011;40315;48.620;9.828;2023-05-23T13:30:59;13.85;;;11.68;;
54408;SDS011;40315;48.620;9.828;2023-05-23T13:33:27;13.20;;;11.77;;
54408;SDS011;40315;48.620;9.828;2023-05-23T13:35:58;12.77;;;11.15;;
54408;SDS011;40315;48.620;9.828;2023-05-23T13:38:25;11.70;;;10.50;;
54408;SDS011;40315;48.620;9.828;2023-05-23T13:40:54;10.75;;;9.65;;
54408;SDS011;40315;48.620;9.828;2023-05-23T13:43:21;12.88;;;11.57;;
54408;SDS011;40315;48.620;9.828;2023-05-23T13:45:48;11.38;;;10.27;;
54408;SDS011;40315;48.620;9.828;2023-05-23T13:48:15;11.00;;;9.88;;
54408;SDS011;40315;48.620;9.828;2023-05-23T13:50:43;12.80;;;10.15;;
54408;SDS011;40315;48.620;9.828;2023-05-23T13:53:13;9.57;;;8.68;;
54408;SDS011;40315;48.620;9.828;2023-05-23T13:55:41;9.82;;;8.80;;
54408;SDS011;40315;48.620;9.828;2023-05-23T13:58:09;9.93;;;8.93;;
54408;SDS011;40315;48.620;9.828;2023-05-23T14:00:39;9.40;;;8.50;;
54408;SDS011;40315;48.620;9.828;2023-05-23T14:03:05;10.13;;;9.15;;
54408;SDS011;40315;48.620;9.828;2023-05-23T14:05:33;10.48;;;9.43;;
54408;SDS011;40315;48.620;9.828;2023-05-23T14:08:01;10.25;;;9.07;;
54408;SDS011;40315;48.620;9.828;2023-05-23T14:10:30;11.73;;;9.68;;
54408;SDS011;40315;48.620;9.828;2023-05-23T14:12:58;10.77;;;9.05;;
54408;SDS011;40315;48.620;9.828;2023-05-23T14:15:25;10.68;;;9.68;;
54408;SDS011;40315;48.620;9.828;2023-05-23T14:17:52;10.70;;;9.60;;
54408;SDS011;40315;48.620;9.828;2023-05-23T14:20:21;11.27;;;10.07;;
54408;SDS011;40315;48.620;9.828;2023-05-23T14:22:48;10.75;;;9.65;;
54408;SDS011;40315;48.620;9.828;2023-05-23T14:25:15;10.70;;;9.30;;
54408;SDS011;40315;48.620;9.828;2023-05-23T14:27:43;9.65;;;8.65;;
54408;SDS011;40315;48.620;9.828;2023-05-23T14:30:13;9.95;;;8.63;;
54408;SDS011;40315;48.620;9.828;2023-05-23T14:32:40;9.80;;;8.80;;
54408;SDS011;40315;48.620;9.828;2023-05-23T14:35:08;9.85;;;8.88;;
54408;SDS011;40315;48.620;9.828;2023-05-23T14:37:36;9.80;;;8.57;;
54408;SDS011;40315;48.620;9.828;2023-05-23T14:40:03;9.75;;;8.82;;
54408;SDS011;40315;48.620;9.828;2023-05-23T14:42:31;9.38;;;8.48;;
54408;SDS011;40315;48.620;9.828;2023-05-23T14:44:59;9.95;;;8.75;;
54408;SDS011;40315;48.620;9.828;2023-05-23T14:47:26;9.50;;;8.60;;